sensor_id;sensor_type;location;lat;lon;timestamp;P1;durP1;ratioP1;P2;durP2;ratioP2
67776;SDS011;54576;52.020;5.536;2022-11-20T00:01:45;13.77;;;8.07;;
67776;SDS011;54576;52.020;5.536;2022-11-20T00:04:11;20.27;;;8.80;;
67776;SDS011;54576;52.020;5.536;2022-11-20T00:06:42;16.00;;;9.23;;
67776;SDS011;54576;52.020;5.536;2022-11-20T00:09:09;14.27;;;8.33;;
67776;SDS011;54576;52.020;5.536;2022-11-20T00:11:36;14.50;;;9.23;;
67776;SDS011;54576;52.020;5.536;2022-11-20T00:14:02;14.63;;;8.47;;
67776;SDS011;54576;52.020;5.536;2022-11-20T00:16:29;16.80;;;9.20;;
67776;SDS011;54576;52.020;5.536;2022-11-20T00:18:56;14.50;;;8.10;;
67776;SDS011;54576;52.020;5.536;2022-11-20T00:21:23;17.97;;;8.07;;
67776;SDS011;54576;52.020;5.536;2022-11-20T00:23:53;15.05;;;7.80;;
67776;SDS011;54576;52.020;5.536;2022-11-20T00:26:20;15.83;;;8.17;;
67776;SDS011;54576;52.020;5.536;2022-11-20T00:28:53;19.13;;;9.02;;
67776;SDS011;54576;52.020;5.536;2022-11-20T00:31:21;13.83;;;8.47;;
67776;SDS011;54576;52.020;5.536;2022-11-20T00:33:47;15.20;;;8.57;;
67776;SDS011;54576;52.020;5.536;2022-11-20T00:36:17;12.60;;;8.57;;
67776;SDS011;54576;52.020;5.536;2022-11-20T00:38:50;14.03;;;8.43;;
67776;SDS011;54576;52.020;5.536;2022-11-20T00:41:17;16.57;;;8.70;;
67776;SDS011;54576;52.020;5.536;2022-11-20T00:43:42;12.67;;;8.33;;
67776;SDS011;54576;52.020;5.536;2022-11-20T00:46:09;14.43;;;8.77;;
67776;SDS011;54576;52.020;5.536;2022-11-20T00:48:39;15.67;;;8.30;;
67776;SDS011;54576;52.020;5.536;2022-11-20T00:51:04;14.23;;;9.67;;
67776;SDS011;54576;52.020;5.536;2022-11-20T00:53:30;24.17;;;9.10;;
67776;SDS011;54576;52.020;5.536;2022-11-20T00:55:57;17.07;;;8.47;;
67776;SDS011;54576;52.020;5.536;2022-11-20T00:58:32;15.57;;;8.70;;
67776;SDS011;54576;52.020;5.536;2022-11-20T01:01:20;14.60;;;8.30;;
67776;SDS011;54576;52.020;5.536;2022-11-20T01:03:47;12.20;;;7.97;;
67776;SDS011;54576;52.020;5.536;2022-11-20T01:06:15;16.83;;;9.20;;
67776;SDS011;54576;52.020;5.536;2022-11-20T01:08:46;25.73;;;9.87;;
67776;SDS011;54576;52.020;5.536;2022-11-20T01:11:13;18.90;;;10.23;;
67776;SDS011;54576;52.020;5.536;2022-11-20T01:13:41;20.23;;;10.40;;
67776;SDS011;54576;52.020;5.536;2022-11-20T01:18:37;23.10;;;10.00;;
67776;SDS011;54576;52.020;5.536;2022-11-20T01:21:10;22.03;;;9.37;;
67776;SDS011;54576;52.020;5.536;2022-11-20T01:23:39;19.13;;;9.43;;
67776;SDS011;54576;52.020;5.536;2022-11-20T01:26:10;13.90;;;9.30;;
67776;SDS011;54576;52.020;5.536;2022-11-20T01:28:38;14.80;;;9.27;;
67776;SDS011;54576;52.020;5.536;2022-11-20T01:33:41;16.10;;;9.03;;
67776;SDS011;54576;52.020;5.536;2022-11-20T01:36:08;13.37;;;8.00;;
67776;SDS011;54576;52.020;5.536;2022-11-20T01:38:36;16.33;;;9.23;;
67776;SDS011;54576;52.020;5.536;2022-11-20T01:41:02;17.07;;;9.33;;
67776;SDS011;54576;52.020;5.536;2022-11-20T01:43:28;18.07;;;9.83;;
67776;SDS011;54576;52.020;5.536;2022-11-20T01:46:00;17.73;;;8.93;;
67776;SDS011;54576;52.020;5.536;2022-11-20T01:48:47;15.30;;;8.70;;
67776;SDS011;54576;52.020;5.536;2022-11-20T01:54:09;17.27;;;9.47;;
67776;SDS011;54576;52.020;5.536;2022-11-20T01:56:49;13.73;;;9.07;;
67776;SDS011;54576;52.020;5.536;2022-11-20T01:59:18;16.98;;;9.20;;
67776;SDS011;54576;52.020;5.536;2022-11-20T02:01:45;18.20;;;9.30;;
67776;SDS011;54576;52.020;5.536;2022-11-20T02:04:12;16.83;;;9.50;;
67776;SDS011;54576;52.020;5.536;2022-11-20T02:06:40;19.40;;;8.93;;
67776;SDS011;54576;52.020;5.536;2022-11-20T02:09:10;15.33;;;8.80;;
67776;SDS011;54576;52.020;5.536;2022-11-20T02:11:36;15.00;;;8.73;;
67776;SDS011;54576;52.020;5.536;2022-11-20T02:14:03;17.87;;;9.57;;
67776;SDS011;54576;52.020;5.536;2022-11-20T02:16:30;20.33;;;10.30;;
67776;SDS011;54576;52.020;5.536;2022-11-20T02:19:04;18.53;;;8.83;;
67776;SDS011;54576;52.020;5.536;2022-11-20T02:21:43;21.53;;;9.57;;
67776;SDS011;54576;52.020;5.536;2022-11-20T02:24:29;28.00;;;10.53;;
67776;SDS011;54576;52.020;5.536;2022-11-20T02:26:59;20.63;;;10.00;;
67776;SDS011;54576;52.020;5.536;2022-11-20T02:29:26;25.60;;;10.80;;
67776;SDS011;54576;52.020;5.536;2022-11-20T02:31:57;17.03;;;9.70;;
67776;SDS011;54576;52.020;5.536;2022-11-20T02:34:25;19.47;;;9.43;;
67776;SDS011;54576;52.020;5.536;2022-11-20T02:36:52;15.63;;;9.10;;
67776;SDS011;54576;52.020;5.536;2022-11-20T02:39:18;20.50;;;10.90;;
67776;SDS011;54576;52.020;5.536;2022-11-20T02:41:46;35.60;;;13.00;;
67776;SDS011;54576;52.020;5.536;2022-11-20T02:44:11;21.47;;;11.20;;
67776;SDS011;54576;52.020;5.536;2022-11-20T02:46:37;23.17;;;11.80;;
67776;SDS011;54576;52.020;5.536;2022-11-20T02:49:03;20.17;;;10.73;;
67776;SDS011;54576;52.020;5.536;2022-11-20T02:51:31;20.70;;;10.27;;
67776;SDS011;54576;52.020;5.536;2022-11-20T02:53:57;18.43;;;9.90;;
67776;SDS011;54576;52.020;5.536;2022-11-20T02:56:23;14.60;;;8.97;;
67776;SDS011;54576;52.020;5.536;2022-11-20T02:58:49;15.67;;;9.10;;
67776;SDS011;54576;52.020;5.536;2022-11-20T03:01:14;17.30;;;10.40;;
67776;SDS011;54576;52.020;5.536;2022-11-20T03:03:40;16.63;;;9.87;;
67776;SDS011;54576;52.020;5.536;2022-11-20T03:06:10;16.10;;;9.50;;
67776;SDS011;54576;52.020;5.536;2022-11-20T03:08:36;17.10;;;9.93;;
67776;SDS011;54576;52.020;5.536;2022-11-20T03:11:05;18.30;;;9.70;;
67776;SDS011;54576;52.020;5.536;2022-11-20T03:13:32;15.20;;;9.40;;
67776;SDS011;54576;52.020;5.536;2022-11-20T03:16:06;15.33;;;9.63;;
67776;SDS011;54576;52.020;5.536;2022-11-20T03:18:34;19.50;;;9.97;;
67776;SDS011;54576;52.020;5.536;2022-11-20T03:21:00;18.03;;;10.23;;
67776;SDS011;54576;52.020;5.536;2022-11-20T03:23:28;17.63;;;9.97;;
67776;SDS011;54576;52.020;5.536;2022-11-20T03:25:56;19.40;;;11.27;;
67776;SDS011;54576;52.020;5.536;2022-11-20T03:28:32;18.30;;;9.93;;
67776;SDS011;54576;52.020;5.536;2022-11-20T03:30:57;21.90;;;11.20;;
67776;SDS011;54576;52.020;5.536;2022-11-20T03:33:23;18.77;;;9.90;;
67776;SDS011;54576;52.020;5.536;2022-11-20T03:35:50;18.03;;;10.10;;
67776;SDS011;54576;52.020;5.536;2022-11-20T03:38:18;14.83;;;9.57;;
67776;SDS011;54576;52.020;5.536;2022-11-20T03:40:44;16.97;;;9.83;;
67776;SDS011;54576;52.020;5.536;2022-11-20T03:43:10;17.40;;;9.87;;
67776;SDS011;54576;52.020;5.536;2022-11-20T03:45:35;17.03;;;10.30;;
67776;SDS011;54576;52.020;5.536;2022-11-20T03:48:01;18.80;;;10.13;;
67776;SDS011;54576;52.020;5.536;2022-11-20T03:50:26;19.40;;;9.87;;
67776;SDS011;54576;52.020;5.536;2022-11-20T03:52:53;18.40;;;10.33;;
67776;SDS011;54576;52.020;5.536;2022-11-20T03:55:18;18.50;;;9.77;;
67776;SDS011;54576;52.020;5.536;2022-11-20T03:57:44;16.80;;;9.73;;
67776;SDS011;54576;52.020;5.536;2022-11-20T04:00:10;18.57;;;9.97;;
67776;SDS011;54576;52.020;5.536;2022-11-20T04:02:37;18.53;;;10.47;;
67776;SDS011;54576;52.020;5.536;2022-11-20T04:05:02;18.77;;;10.73;;
67776;SDS011;54576;52.020;5.536;2022-11-20T04:07:28;18.40;;;9.77;;
67776;SDS011;54576;52.020;5.536;2022-11-20T04:09:53;23.00;;;10.93;;
67776;SDS011;54576;52.020;5.536;2022-11-20T04:12:19;23.63;;;11.23;;
67776;SDS011;54576;52.020;5.536;2022-11-20T04:14:44;24.47;;;11.30;;
67776;SDS011;54576;52.020;5.536;2022-11-20T04:17:10;18.17;;;9.93;;
67776;SDS011;54576;52.020;5.536;2022-11-20T04:19:37;16.93;;;10.03;;
67776;SDS011;54576;52.020;5.536;2022-11-20T04:22:02;19.63;;;9.73;;
67776;SDS011;54576;52.020;5.536;2022-11-20T04:24:28;16.17;;;9.87;;
67776;SDS011;54576;52.020;5.536;2022-11-20T04:26:53;15.87;;;9.37;;
67776;SDS011;54576;52.020;5.536;2022-11-20T04:29:19;18.03;;;9.43;;
67776;SDS011;54576;52.020;5.536;2022-11-20T04:31:45;17.23;;;9.70;;
67776;SDS011;54576;52.020;5.536;2022-11-20T04:34:10;20.70;;;10.40;;
67776;SDS011;54576;52.020;5.536;2022-11-20T04:36:36;17.57;;;9.43;;
67776;SDS011;54576;52.020;5.536;2022-11-20T04:39:03;16.57;;;9.37;;
67776;SDS011;54576;52.020;5.536;2022-11-20T04:41:31;18.43;;;10.20;;
67776;SDS011;54576;52.020;5.536;2022-11-20T04:43:59;15.83;;;9.80;;
67776;SDS011;54576;52.020;5.536;2022-11-20T04:46:33;28.53;;;11.30;;
67776;SDS011;54576;52.020;5.536;2022-11-20T04:49:00;16.93;;;10.77;;
67776;SDS011;54576;52.020;5.536;2022-11-20T04:51:26;16.83;;;10.27;;
67776;SDS011;54576;52.020;5.536;2022-11-20T04:53:52;17.03;;;9.77;;
67776;SDS011;54576;52.020;5.536;2022-11-20T04:56:18;15.60;;;9.37;;
67776;SDS011;54576;52.020;5.536;2022-11-20T04:58:45;24.17;;;9.47;;
67776;SDS011;54576;52.020;5.536;2022-11-20T05:01:13;18.10;;;10.20;;
67776;SDS011;54576;52.020;5.536;2022-11-20T05:03:39;16.30;;;9.90;;
67776;SDS011;54576;52.020;5.536;2022-11-20T05:06:06;16.20;;;9.30;;
67776;SDS011;54576;52.020;5.536;2022-11-20T05:08:32;20.03;;;9.60;;
67776;SDS011;54576;52.020;5.536;2022-11-20T05:11:03;18.33;;;8.93;;
67776;SDS011;54576;52.020;5.536;2022-11-20T05:13:38;16.70;;;10.03;;
67776;SDS011;54576;52.020;5.536;2022-11-20T05:16:06;15.13;;;9.30;;
67776;SDS011;54576;52.020;5.536;2022-11-20T05:18:36;17.80;;;9.43;;
67776;SDS011;54576;52.020;5.536;2022-11-20T05:21:03;17.13;;;10.80;;
67776;SDS011;54576;52.020;5.536;2022-11-20T05:23:31;19.43;;;11.17;;
67776;SDS011;54576;52.020;5.536;2022-11-20T05:25:58;17.63;;;10.87;;
67776;SDS011;54576;52.020;5.536;2022-11-20T05:28:24;17.97;;;9.83;;
67776;SDS011;54576;52.020;5.536;2022-11-20T05:30:50;20.83;;;11.43;;
67776;SDS011;54576;52.020;5.536;2022-11-20T05:33:16;17.30;;;10.30;;
67776;SDS011;54576;52.020;5.536;2022-11-20T05:35:42;16.10;;;10.00;;
67776;SDS011;54576;52.020;5.536;2022-11-20T05:38:08;17.83;;;9.50;;
67776;SDS011;54576;52.020;5.536;2022-11-20T05:40:34;16.97;;;10.17;;
67776;SDS011;54576;52.020;5.536;2022-11-20T05:43:00;23.57;;;9.57;;
67776;SDS011;54576;52.020;5.536;2022-11-20T05:45:26;19.63;;;10.17;;
67776;SDS011;54576;52.020;5.536;2022-11-20T05:47:52;17.40;;;9.97;;
67776;SDS011;54576;52.020;5.536;2022-11-20T05:50:18;18.73;;;10.13;;
67776;SDS011;54576;52.020;5.536;2022-11-20T05:52:43;18.03;;;10.50;;
67776;SDS011;54576;52.020;5.536;2022-11-20T05:55:09;19.33;;;10.03;;
67776;SDS011;54576;52.020;5.536;2022-11-20T05:57:35;19.23;;;10.40;;
67776;SDS011;54576;52.020;5.536;2022-11-20T06:00:00;18.07;;;9.37;;
67776;SDS011;54576;52.020;5.536;2022-11-20T06:02:29;16.90;;;8.90;;
67776;SDS011;54576;52.020;5.536;2022-11-20T06:04:55;17.33;;;10.30;;
67776;SDS011;54576;52.020;5.536;2022-11-20T06:07:20;19.33;;;9.37;;
67776;SDS011;54576;52.020;5.536;2022-11-20T06:09:46;14.90;;;8.97;;
67776;SDS011;54576;52.020;5.536;2022-11-20T06:12:12;20.77;;;9.33;;
67776;SDS011;54576;52.020;5.536;2022-11-20T06:14:37;17.00;;;9.17;;
67776;SDS011;54576;52.020;5.536;2022-11-20T06:17:03;17.73;;;9.53;;
67776;SDS011;54576;52.020;5.536;2022-11-20T06:19:29;16.20;;;9.53;;
67776;SDS011;54576;52.020;5.536;2022-11-20T06:21:56;17.10;;;8.73;;
67776;SDS011;54576;52.020;5.536;2022-11-20T06:24:21;15.83;;;9.27;;
67776;SDS011;54576;52.020;5.536;2022-11-20T06:26:47;16.70;;;9.43;;
67776;SDS011;54576;52.020;5.536;2022-11-20T06:29:13;22.90;;;9.97;;
67776;SDS011;54576;52.020;5.536;2022-11-20T06:31:39;18.57;;;10.53;;
67776;SDS011;54576;52.020;5.536;2022-11-20T06:34:05;12.83;;;8.50;;
67776;SDS011;54576;52.020;5.536;2022-11-20T06:36:31;18.17;;;8.60;;
67776;SDS011;54576;52.020;5.536;2022-11-20T06:38:57;16.03;;;9.83;;
67776;SDS011;54576;52.020;5.536;2022-11-20T06:41:22;17.63;;;9.13;;
67776;SDS011;54576;52.020;5.536;2022-11-20T06:43:48;17.57;;;9.13;;
67776;SDS011;54576;52.020;5.536;2022-11-20T06:46:14;16.80;;;9.80;;
67776;SDS011;54576;52.020;5.536;2022-11-20T06:48:45;17.63;;;9.50;;
67776;SDS011;54576;52.020;5.536;2022-11-20T06:51:11;17.00;;;8.83;;
67776;SDS011;54576;52.020;5.536;2022-11-20T06:53:37;18.70;;;9.17;;
67776;SDS011;54576;52.020;5.536;2022-11-20T06:56:03;18.00;;;9.30;;
67776;SDS011;54576;52.020;5.536;2022-11-20T06:58:30;16.40;;;9.17;;
67776;SDS011;54576;52.020;5.536;2022-11-20T07:01:00;16.60;;;9.67;;
67776;SDS011;54576;52.020;5.536;2022-11-20T07:03:31;15.57;;;9.53;;
67776;SDS011;54576;52.020;5.536;2022-11-20T07:05:57;15.73;;;9.80;;
67776;SDS011;54576;52.020;5.536;2022-11-20T07:08:23;13.53;;;8.60;;
67776;SDS011;54576;52.020;5.536;2022-11-20T07:10:49;15.13;;;9.60;;
67776;SDS011;54576;52.020;5.536;2022-11-20T07:13:14;16.67;;;9.93;;
67776;SDS011;54576;52.020;5.536;2022-11-20T07:15:42;22.07;;;11.47;;
67776;SDS011;54576;52.020;5.536;2022-11-20T07:18:07;20.03;;;10.43;;
67776;SDS011;54576;52.020;5.536;2022-11-20T07:20:33;20.23;;;10.70;;
67776;SDS011;54576;52.020;5.536;2022-11-20T07:22:59;20.57;;;11.03;;
67776;SDS011;54576;52.020;5.536;2022-11-20T07:25:24;18.93;;;10.67;;
67776;SDS011;54576;52.020;5.536;2022-11-20T07:27:56;20.13;;;11.43;;
67776;SDS011;54576;52.020;5.536;2022-11-20T07:30:29;17.17;;;10.37;;
67776;SDS011;54576;52.020;5.536;2022-11-20T07:32:56;19.13;;;11.53;;
67776;SDS011;54576;52.020;5.536;2022-11-20T07:35:23;20.10;;;10.47;;
67776;SDS011;54576;52.020;5.536;2022-11-20T07:37:51;16.52;;;10.27;;
67776;SDS011;54576;52.020;5.536;2022-11-20T07:40:17;23.70;;;11.20;;
67776;SDS011;54576;52.020;5.536;2022-11-20T07:42:50;27.63;;;12.57;;
67776;SDS011;54576;52.020;5.536;2022-11-20T07:45:17;24.03;;;13.33;;
67776;SDS011;54576;52.020;5.536;2022-11-20T07:47:43;25.70;;;12.83;;
67776;SDS011;54576;52.020;5.536;2022-11-20T07:50:09;25.23;;;12.37;;
67776;SDS011;54576;52.020;5.536;2022-11-20T07:52:35;20.40;;;11.87;;
67776;SDS011;54576;52.020;5.536;2022-11-20T07:55:01;22.00;;;12.00;;
67776;SDS011;54576;52.020;5.536;2022-11-20T07:57:26;22.83;;;12.00;;
67776;SDS011;54576;52.020;5.536;2022-11-20T07:59:52;27.80;;;13.13;;
67776;SDS011;54576;52.020;5.536;2022-11-20T08:02:21;23.77;;;12.10;;
67776;SDS011;54576;52.020;5.536;2022-11-20T08:04:46;21.67;;;13.35;;
67776;SDS011;54576;52.020;5.536;2022-11-20T08:07:12;25.70;;;13.13;;
67776;SDS011;54576;52.020;5.536;2022-11-20T08:09:37;23.53;;;12.80;;
67776;SDS011;54576;52.020;5.536;2022-11-20T08:12:03;26.53;;;13.33;;
67776;SDS011;54576;52.020;5.536;2022-11-20T08:14:47;35.40;;;14.47;;
67776;SDS011;54576;52.020;5.536;2022-11-20T08:17:12;23.17;;;14.90;;
67776;SDS011;54576;52.020;5.536;2022-11-20T08:19:38;23.67;;;14.00;;
67776;SDS011;54576;52.020;5.536;2022-11-20T08:22:05;27.87;;;15.83;;
67776;SDS011;54576;52.020;5.536;2022-11-20T08:24:31;23.77;;;14.23;;
67776;SDS011;54576;52.020;5.536;2022-11-20T08:26:59;23.77;;;13.53;;
67776;SDS011;54576;52.020;5.536;2022-11-20T08:29:26;35.28;;;15.88;;
67776;SDS011;54576;52.020;5.536;2022-11-20T08:31:52;23.40;;;13.37;;
67776;SDS011;54576;52.020;5.536;2022-11-20T08:34:17;21.73;;;12.33;;
67776;SDS011;54576;52.020;5.536;2022-11-20T08:36:43;19.53;;;12.23;;
67776;SDS011;54576;52.020;5.536;2022-11-20T08:39:11;22.87;;;12.87;;
67776;SDS011;54576;52.020;5.536;2022-11-20T08:41:37;23.15;;;12.88;;
67776;SDS011;54576;52.020;5.536;2022-11-20T08:44:03;27.98;;;12.80;;
67776;SDS011;54576;52.020;5.536;2022-11-20T08:46:38;28.63;;;14.07;;
67776;SDS011;54576;52.020;5.536;2022-11-20T08:49:06;19.60;;;12.93;;
67776;SDS011;54576;52.020;5.536;2022-11-20T08:51:34;24.38;;;13.85;;
67776;SDS011;54576;52.020;5.536;2022-11-20T08:54:00;26.25;;;13.90;;
67776;SDS011;54576;52.020;5.536;2022-11-20T08:56:25;26.13;;;14.70;;
67776;SDS011;54576;52.020;5.536;2022-11-20T08:58:51;29.30;;;14.55;;
67776;SDS011;54576;52.020;5.536;2022-11-20T09:01:18;24.75;;;15.32;;
67776;SDS011;54576;52.020;5.536;2022-11-20T09:03:44;31.65;;;13.95;;
67776;SDS011;54576;52.020;5.536;2022-11-20T09:06:10;23.75;;;13.60;;
67776;SDS011;54576;52.020;5.536;2022-11-20T09:08:36;30.60;;;15.27;;
67776;SDS011;54576;52.020;5.536;2022-11-20T09:11:02;29.52;;;15.23;;
67776;SDS011;54576;52.020;5.536;2022-11-20T09:13:29;20.73;;;12.48;;
67776;SDS011;54576;52.020;5.536;2022-11-20T09:15:56;22.15;;;13.30;;
67776;SDS011;54576;52.020;5.536;2022-11-20T09:18:23;26.60;;;15.10;;
67776;SDS011;54576;52.020;5.536;2022-11-20T09:20:56;29.02;;;14.50;;
67776;SDS011;54576;52.020;5.536;2022-11-20T09:23:23;25.77;;;14.88;;
67776;SDS011;54576;52.020;5.536;2022-11-20T09:25:49;24.00;;;12.90;;
67776;SDS011;54576;52.020;5.536;2022-11-20T09:28:15;24.85;;;13.63;;
67776;SDS011;54576;52.020;5.536;2022-11-20T09:30:41;28.00;;;14.27;;
67776;SDS011;54576;52.020;5.536;2022-11-20T09:33:07;24.75;;;14.65;;
67776;SDS011;54576;52.020;5.536;2022-11-20T09:35:32;26.50;;;14.43;;
67776;SDS011;54576;52.020;5.536;2022-11-20T09:37:58;24.90;;;14.10;;
67776;SDS011;54576;52.020;5.536;2022-11-20T09:40:28;21.35;;;13.13;;
67776;SDS011;54576;52.020;5.536;2022-11-20T09:42:57;27.05;;;14.52;;
67776;SDS011;54576;52.020;5.536;2022-11-20T09:45:30;29.02;;;14.68;;
67776;SDS011;54576;52.020;5.536;2022-11-20T09:53:34;23.52;;;14.80;;
67776;SDS011;54576;52.020;5.536;2022-11-20T09:56:11;29.42;;;14.48;;
67776;SDS011;54576;52.020;5.536;2022-11-20T10:01:37;25.70;;;14.65;;
67776;SDS011;54576;52.020;5.536;2022-11-20T10:04:18;24.98;;;14.30;;
67776;SDS011;54576;52.020;5.536;2022-11-20T10:09:38;27.45;;;15.23;;
67776;SDS011;54576;52.020;5.536;2022-11-20T10:12:19;34.50;;;16.08;;
67776;SDS011;54576;52.020;5.536;2022-11-20T10:15:01;24.40;;;15.23;;
67776;SDS011;54576;52.020;5.536;2022-11-20T10:26:35;35.10;;;15.00;;
67776;SDS011;54576;52.020;5.536;2022-11-20T10:29:10;39.53;;;15.85;;
67776;SDS011;54576;52.020;5.536;2022-11-20T10:31:44;30.40;;;16.63;;
67776;SDS011;54576;52.020;5.536;2022-11-20T10:34:16;28.40;;;16.45;;
67776;SDS011;54576;52.020;5.536;2022-11-20T10:36:58;27.02;;;14.98;;
67776;SDS011;54576;52.020;5.536;2022-11-20T10:42:43;26.15;;;16.35;;
67776;SDS011;54576;52.020;5.536;2022-11-20T10:45:21;26.00;;;15.82;;
67776;SDS011;54576;52.020;5.536;2022-11-20T10:47:54;33.45;;;17.45;;
67776;SDS011;54576;52.020;5.536;2022-11-20T10:50:32;34.43;;;18.30;;
67776;SDS011;54576;52.020;5.536;2022-11-20T10:55:53;33.20;;;18.58;;
67776;SDS011;54576;52.020;5.536;2022-11-20T10:58:37;33.85;;;19.02;;
67776;SDS011;54576;52.020;5.536;2022-11-20T11:01:26;36.38;;;16.75;;
67776;SDS011;54576;52.020;5.536;2022-11-20T11:03:52;33.10;;;18.73;;
67776;SDS011;54576;52.020;5.536;2022-11-20T11:06:31;33.33;;;17.38;;
67776;SDS011;54576;52.020;5.536;2022-11-20T11:09:19;34.45;;;19.83;;
67776;SDS011;54576;52.020;5.536;2022-11-20T11:11:49;33.67;;;19.13;;
67776;SDS011;54576;52.020;5.536;2022-11-20T11:14:15;34.28;;;19.00;;
67776;SDS011;54576;52.020;5.536;2022-11-20T11:16:49;35.22;;;19.25;;
67776;SDS011;54576;52.020;5.536;2022-11-20T11:19:16;38.38;;;22.10;;
67776;SDS011;54576;52.020;5.536;2022-11-20T11:21:46;43.42;;;21.92;;
67776;SDS011;54576;52.020;5.536;2022-11-20T11:24:20;33.13;;;19.17;;
67776;SDS011;54576;52.020;5.536;2022-11-20T11:27:03;28.30;;;17.80;;
67776;SDS011;54576;52.020;5.536;2022-11-20T11:29:37;30.02;;;17.90;;
67776;SDS011;54576;52.020;5.536;2022-11-20T11:32:04;30.30;;;18.48;;
67776;SDS011;54576;52.020;5.536;2022-11-20T11:34:36;31.95;;;18.38;;
67776;SDS011;54576;52.020;5.536;2022-11-20T11:37:01;33.75;;;18.52;;
67776;SDS011;54576;52.020;5.536;2022-11-20T11:39:28;58.58;;;25.17;;
67776;SDS011;54576;52.020;5.536;2022-11-20T11:41:56;31.60;;;18.85;;
67776;SDS011;54576;52.020;5.536;2022-11-20T11:44:24;29.05;;;16.33;;
67776;SDS011;54576;52.020;5.536;2022-11-20T11:47:27;32.00;;;18.23;;
67776;SDS011;54576;52.020;5.536;2022-11-20T11:50:02;39.75;;;21.35;;
67776;SDS011;54576;52.020;5.536;2022-11-20T11:52:39;37.22;;;21.13;;
67776;SDS011;54576;52.020;5.536;2022-11-20T11:55:42;35.80;;;19.87;;
67776;SDS011;54576;52.020;5.536;2022-11-20T12:04:17;35.38;;;17.70;;
67776;SDS011;54576;52.020;5.536;2022-11-20T12:10:01;36.10;;;19.63;;
67776;SDS011;54576;52.020;5.536;2022-11-20T12:12:41;36.15;;;20.95;;
67776;SDS011;54576;52.020;5.536;2022-11-20T12:15:11;34.30;;;19.85;;
67776;SDS011;54576;52.020;5.536;2022-11-20T12:17:40;38.72;;;20.15;;
67776;SDS011;54576;52.020;5.536;2022-11-20T12:20:11;41.40;;;19.42;;
67776;SDS011;54576;52.020;5.536;2022-11-20T12:25:30;35.53;;;19.83;;
67776;SDS011;54576;52.020;5.536;2022-11-20T12:30:50;38.00;;;19.98;;
67776;SDS011;54576;52.020;5.536;2022-11-20T12:33:55;27.63;;;17.60;;
67776;SDS011;54576;52.020;5.536;2022-11-20T12:36:42;38.40;;;20.10;;
67776;SDS011;54576;52.020;5.536;2022-11-20T12:50:43;33.53;;;19.27;;
67776;SDS011;54576;52.020;5.536;2022-11-20T12:55:53;40.58;;;22.00;;
67776;SDS011;54576;52.020;5.536;2022-11-20T12:58:57;36.90;;;21.23;;
67776;SDS011;54576;52.020;5.536;2022-11-20T13:01:40;34.80;;;21.27;;
67776;SDS011;54576;52.020;5.536;2022-11-20T13:04:41;38.35;;;20.48;;
67776;SDS011;54576;52.020;5.536;2022-11-20T13:07:30;35.17;;;20.40;;
67776;SDS011;54576;52.020;5.536;2022-11-20T13:09:57;39.80;;;21.27;;
67776;SDS011;54576;52.020;5.536;2022-11-20T13:12:36;36.72;;;20.83;;
67776;SDS011;54576;52.020;5.536;2022-11-20T13:15:19;44.35;;;21.67;;
67776;SDS011;54576;52.020;5.536;2022-11-20T13:18:02;36.53;;;18.95;;
67776;SDS011;54576;52.020;5.536;2022-11-20T13:20:30;33.40;;;19.53;;
67776;SDS011;54576;52.020;5.536;2022-11-20T13:22:57;37.58;;;19.95;;
67776;SDS011;54576;52.020;5.536;2022-11-20T13:30:35;35.45;;;20.40;;
67776;SDS011;54576;52.020;5.536;2022-11-20T13:33:27;35.63;;;20.73;;
67776;SDS011;54576;52.020;5.536;2022-11-20T13:36:02;36.03;;;19.92;;
67776;SDS011;54576;52.020;5.536;2022-11-20T13:38:43;35.90;;;19.50;;
67776;SDS011;54576;52.020;5.536;2022-11-20T13:41:11;37.00;;;20.17;;
67776;SDS011;54576;52.020;5.536;2022-11-20T13:46:48;41.03;;;20.00;;
67776;SDS011;54576;52.020;5.536;2022-11-20T13:49:59;44.30;;;20.15;;
67776;SDS011;54576;52.020;5.536;2022-11-20T13:52:21;42.50;;;20.63;;
67776;SDS011;54576;52.020;5.536;2022-11-20T13:55:23;41.72;;;20.63;;
67776;SDS011;54576;52.020;5.536;2022-11-20T14:01:08;43.85;;;21.20;;
67776;SDS011;54576;52.020;5.536;2022-11-20T14:03:41;40.83;;;20.20;;
67776;SDS011;54576;52.020;5.536;2022-11-20T14:06:11;35.97;;;19.00;;
67776;SDS011;54576;52.020;5.536;2022-11-20T14:08:47;41.58;;;20.75;;
67776;SDS011;54576;52.020;5.536;2022-11-20T14:16:34;39.45;;;20.23;;
67776;SDS011;54576;52.020;5.536;2022-11-20T14:21:48;51.83;;;21.63;;
67776;SDS011;54576;52.020;5.536;2022-11-20T14:24:19;40.17;;;20.65;;
67776;SDS011;54576;52.020;5.536;2022-11-20T14:26:47;39.63;;;22.52;;
67776;SDS011;54576;52.020;5.536;2022-11-20T14:29:13;43.33;;;24.42;;
67776;SDS011;54576;52.020;5.536;2022-11-20T14:31:45;42.00;;;22.30;;
67776;SDS011;54576;52.020;5.536;2022-11-20T14:34:16;36.95;;;19.83;;
67776;SDS011;54576;52.020;5.536;2022-11-20T14:36:44;41.40;;;21.88;;
67776;SDS011;54576;52.020;5.536;2022-11-20T14:39:20;39.25;;;20.98;;
67776;SDS011;54576;52.020;5.536;2022-11-20T14:41:50;41.17;;;21.15;;
67776;SDS011;54576;52.020;5.536;2022-11-20T14:44:16;45.33;;;22.63;;
67776;SDS011;54576;52.020;5.536;2022-11-20T14:46:42;37.55;;;21.77;;
67776;SDS011;54576;52.020;5.536;2022-11-20T14:49:08;40.03;;;23.05;;
67776;SDS011;54576;52.020;5.536;2022-11-20T14:51:37;46.20;;;22.42;;
67776;SDS011;54576;52.020;5.536;2022-11-20T14:54:19;47.08;;;25.00;;
67776;SDS011;54576;52.020;5.536;2022-11-20T14:56:57;50.47;;;25.80;;
67776;SDS011;54576;52.020;5.536;2022-11-20T14:59:25;48.75;;;25.05;;
67776;SDS011;54576;52.020;5.536;2022-11-20T15:02:01;50.55;;;25.48;;
67776;SDS011;54576;52.020;5.536;2022-11-20T15:04:29;42.92;;;22.05;;
67776;SDS011;54576;52.020;5.536;2022-11-20T15:06:55;41.30;;;22.98;;
67776;SDS011;54576;52.020;5.536;2022-11-20T15:09:22;43.15;;;21.98;;
67776;SDS011;54576;52.020;5.536;2022-11-20T15:11:55;46.25;;;20.52;;
67776;SDS011;54576;52.020;5.536;2022-11-20T15:14:24;51.58;;;23.90;;
67776;SDS011;54576;52.020;5.536;2022-11-20T15:16:50;49.95;;;21.17;;
67776;SDS011;54576;52.020;5.536;2022-11-20T15:19:17;48.38;;;24.63;;
67776;SDS011;54576;52.020;5.536;2022-11-20T15:21:45;47.28;;;23.27;;
67776;SDS011;54576;52.020;5.536;2022-11-20T15:24:11;53.33;;;24.92;;
67776;SDS011;54576;52.020;5.536;2022-11-20T15:26:37;56.88;;;24.35;;
67776;SDS011;54576;52.020;5.536;2022-11-20T15:29:09;54.83;;;24.65;;
67776;SDS011;54576;52.020;5.536;2022-11-20T15:31:37;46.75;;;24.60;;
67776;SDS011;54576;52.020;5.536;2022-11-20T15:36:39;50.97;;;23.75;;
67776;SDS011;54576;52.020;5.536;2022-11-20T15:39:05;53.63;;;24.60;;
67776;SDS011;54576;52.020;5.536;2022-11-20T15:41:36;45.28;;;21.50;;
67776;SDS011;54576;52.020;5.536;2022-11-20T15:44:03;61.13;;;23.88;;
67776;SDS011;54576;52.020;5.536;2022-11-20T15:46:30;50.70;;;23.65;;
67776;SDS011;54576;52.020;5.536;2022-11-20T15:49:02;62.65;;;26.48;;
67776;SDS011;54576;52.020;5.536;2022-11-20T15:51:34;59.33;;;25.75;;
67776;SDS011;54576;52.020;5.536;2022-11-20T15:54:05;58.63;;;24.85;;
67776;SDS011;54576;52.020;5.536;2022-11-20T15:56:35;61.90;;;26.27;;
67776;SDS011;54576;52.020;5.536;2022-11-20T15:59:02;71.57;;;30.08;;
67776;SDS011;54576;52.020;5.536;2022-11-20T16:01:27;71.60;;;31.63;;
67776;SDS011;54576;52.020;5.536;2022-11-20T16:03:53;71.70;;;30.85;;
67776;SDS011;54576;52.020;5.536;2022-11-20T16:06:19;61.17;;;27.77;;